Time;durP1;ratioP1;P1;durP2;ratioP2;P2;SDS_P1;SDS_P2;PMS_P1;PMS_P2;Temp;Humidity;BMP_temperature;BMP_pressure;BME280_temperature;BME280_humidity;BME280_pressure;Samples;Min_cycle;Max_cycle;Signal;HPM_P1;HPM_P2
2021/06/06 00:00:36;;;;;;;2.20;1.50;;;23.00;50.70;;;;;;5008149;28;20500;-30
2021/06/06 00:03:03;;;;;;;1.45;1.35;;;22.90;50.90;;;;;;5013027;28;20028;-28
2021/06/06 00:05:47;;;;;;;0.95;0.95;;;22.90;50.60;;;;;;5012539;28;20026;-30
2021/06/06 00:08:13;;;;;;;;;;;22.90;50.70;;;;;;5015124;28;20014;-29
2021/06/06 00:10:38;;;;;;;1.35;1.25;;;22.90;50.80;;;;;;5012280;28;19917;-30
2021/06/06 00:13:04;;;;;;;1.40;1.30;;;22.80;50.80;;;;;;5010988;28;20042;-32
2021/06/06 00:15:30;;;;;;;1.20;1.10;;;22.80;50.90;;;;;;5011225;28;20029;-29
2021/06/06 00:17:56;;;;;;;1.95;1.30;;;22.80;50.80;;;;;;5011673;28;20470;-33
2021/06/06 00:20:22;;;;;;;1.20;1.10;;;22.80;50.90;;;;;;5012882;28;20388;-28
2021/06/06 00:22:47;;;;;;;2.67;1.33;;;22.70;50.90;;;;;;5014274;28;20030;-28
2021/06/06 00:25:13;;;;;;;2.53;1.40;;;22.70;51.10;;;;;;5009489;28;20109;-30
2021/06/06 00:27:39;;;;;;;1.58;1.33;;;22.80;51.00;;;;;;5013026;28;20489;-30
2021/06/06 00:30:08;;;;;;;3.28;1.30;;;22.80;50.90;;;;;;5010789;28;20079;-30
2021/06/06 00:32:34;;;;;;;1.95;1.75;;;22.90;50.90;;;;;;5011689;28;20038;-29
2021/06/06 00:35:00;;;;;;;1.45;1.35;;;22.80;51.00;;;;;;5012257;28;20025;-31
2021/06/06 00:37:26;;;;;;;1.63;1.20;;;22.80;50.90;;;;;;5010156;28;20030;-34
2021/06/06 00:39:51;;;;;;;1.20;1.15;;;22.70;51.00;;;;;;5011951;28;20476;-29
2021/06/06 00:42:20;;;;;;;1.20;1.10;;;22.70;51.00;;;;;;5042669;28;20587;-29
2021/06/06 00:44:45;;;;;;;1.30;1.08;;;22.80;51.10;;;;;;5010055;28;20018;-33
2021/06/06 00:47:11;;;;;;;1.30;1.17;;;22.70;51.20;;;;;;5011220;28;20087;-31
2021/06/06 00:49:36;;;;;;;1.65;1.13;;;22.80;51.10;;;;;;5011017;28;20018;-34
2021/06/06 00:52:03;;;;;;;1.20;1.10;;;22.70;51.20;;;;;;5009393;28;20095;-29
2021/06/06 00:54:30;;;;;;;1.88;1.40;;;22.70;51.40;;;;;;5010174;28;20558;-32
2021/06/06 00:57:10;;;;;;;1.23;1.13;;;22.70;51.10;;;;;;5042874;28;20056;-28
2021/06/06 00:59:37;;;;;;;2.53;1.05;;;22.70;51.30;;;;;;5027260;28;20473;-34
2021/06/06 01:02:03;;;;;;;1.30;1.20;;;22.60;51.30;;;;;;5014330;28;20037;-29
2021/06/06 01:04:29;;;;;;;1.80;1.25;;;22.60;51.30;;;;;;5030427;28;20034;-29
2021/06/06 01:06:55;;;;;;;2.75;1.27;;;22.60;51.20;;;;;;5031167;28;20052;-31
2021/06/06 01:09:22;;;;;;;1.55;1.17;;;22.60;51.40;;;;;;5033611;28;20022;-30
2021/06/06 01:12:11;;;;;;;1.58;1.48;;;22.60;51.30;;;;;;5031258;28;20033;-29
2021/06/06 01:14:59;;;;;;;1.73;1.17;;;22.60;51.30;;;;;;5045252;28;20021;-33
2021/06/06 01:17:33;;;;;;;2.33;1.20;;;22.60;51.30;;;;;;5013969;28;20052;-33
2021/06/06 01:20:01;;;;;;;;;;;22.60;52.10;;;;;;5046565;28;20507;-29
2021/06/06 01:22:49;;;;;;;1.80;1.40;;;22.60;51.40;;;;;;5030632;28;19909;-31
2021/06/06 01:25:22;;;;;;;1.23;1.13;;;22.70;51.30;;;;;;5030127;28;20022;-29
2021/06/06 01:27:58;;;;;;;1.15;1.05;;;22.60;51.50;;;;;;5016668;28;20029;-32
2021/06/06 01:30:30;;;;;;;2.65;1.33;;;22.50;51.50;;;;;;5032148;28;20103;-31
2021/06/06 01:33:04;;;;;;;1.55;1.25;;;22.50;51.60;;;;;;5032679;28;20519;-32
2021/06/06 01:35:43;;;;;;;2.13;1.17;;;22.50;51.60;;;;;;5035053;28;20033;-28
2021/06/06 01:38:18;;;;;;;1.40;1.30;;;22.60;51.40;;;;;;5031892;28;20095;-32
2021/06/06 01:40:44;;;;;;;1.30;1.20;;;22.60;51.50;;;;;;5018265;28;20025;-36
2021/06/06 01:43:18;;;;;;;1.38;1.20;;;22.50;51.40;;;;;;5034779;28;20076;-38
2021/06/06 01:45:46;;;;;;;1.40;1.08;;;22.60;51.50;;;;;;5033617;28;20025;-31
2021/06/06 01:48:12;;;;;;;2.17;1.58;;;22.50;51.60;;;;;;5033511;28;20057;-32
2021/06/06 01:50:50;;;;;;;1.25;1.02;;;22.60;51.50;;;;;;5014673;28;20038;-31
2021/06/06 01:53:15;;;;;;;3.22;1.30;;;22.60;51.30;;;;;;5017725;28;20025;-29
2021/06/06 01:55:49;;;;;;;1.35;1.15;;;22.50;51.30;;;;;;5016571;28;20048;-29
2021/06/06 01:58:14;;;;;;;1.60;1.42;;;22.50;51.40;;;;;;5011237;28;20026;-33
2021/06/06 02:00:45;;;;;;;1.35;1.00;;;22.50;51.40;;;;;;5015938;28;20061;-29
2021/06/06 02:03:11;;;;;;;1.40;1.30;;;22.60;51.40;;;;;;5050796;28;20032;-31
2021/06/06 02:05:37;;;;;;;0.95;0.93;;;22.60;51.30;;;;;;5015468;28;20132;-29
2021/06/06 02:08:04;;;;;;;1.40;1.20;;;22.50;51.40;;;;;;5037271;28;20067;-31
2021/06/06 02:10:33;;;;;;;1.15;1.00;;;22.50;51.30;;;;;;5015184;28;20026;-32
2021/06/06 02:13:08;;;;;;;1.30;1.17;;;22.60;51.40;;;;;;5014331;28;20033;-29
2021/06/06 02:15:34;;;;;;;1.30;1.20;;;22.50;52.00;;;;;;5048020;28;20029;-32
2021/06/06 02:18:00;;;;;;;2.67;1.60;;;22.60;51.20;;;;;;5034021;28;20113;-32
2021/06/06 02:20:28;;;;;;;2.00;1.35;;;22.60;51.20;;;;;;5035119;28;20468;-30
2021/06/06 02:22:54;;;;;;;1.30;1.02;;;22.60;51.20;;;;;;5034689;28;20101;-29
2021/06/06 02:25:20;;;;;;;1.48;1.30;;;22.50;51.60;;;;;;5015273;28;20144;-29
2021/06/06 02:28:05;;;;;;;1.42;1.30;;;22.40;51.80;;;;;;5015606;28;20395;-30
2021/06/06 02:31:19;;;;;;;1.30;1.10;;;22.50;51.50;;;;;;5046747;28;20059;-32
2021/06/06 02:33:56;;;;;;;1.20;1.13;;;22.40;51.50;;;;;;4973199;28;20109;-34
2021/06/06 02:36:22;;;;;;;1.30;1.20;;;22.40;51.60;;;;;;4972617;28;20035;-34
2021/06/06 02:38:50;;;;;;;2.33;1.08;;;22.40;51.60;;;;;;4970820;28;20026;-32
2021/06/06 02:41:27;;;;;;;1.67;1.27;;;22.40;51.60;;;;;;4973153;28;20835;-31
2021/06/06 02:43:56;;;;;;;1.08;1.00;;;22.40;51.40;;;;;;4955943;28;20034;-28
2021/06/06 02:46:22;;;;;;;2.00;1.35;;;22.30;51.50;;;;;;4968605;28;20042;-29
2021/06/06 02:49:03;;;;;;;1.30;1.20;;;22.40;51.70;;;;;;4970964;28;20054;-30
2021/06/06 02:51:29;;;;;;;2.50;1.30;;;22.40;51.60;;;;;;4971924;28;20043;-29
2021/06/06 02:54:05;;;;;;;1.30;1.17;;;22.30;51.60;;;;;;4971827;28;20046;-33
2021/06/06 02:56:33;;;;;;;1.20;1.10;;;22.30;51.80;;;;;;4970647;28;20042;-30
2021/06/06 02:59:16;;;;;;;1.92;1.40;;;22.30;51.60;;;;;;4955424;28;20027;-30
2021/06/06 03:01:48;;;;;;;1.50;1.20;;;22.30;51.60;;;;;;4971276;28;20078;-33
2021/06/06 03:04:15;;;;;;;1.45;1.00;;;22.30;51.60;;;;;;4954907;28;20098;-32
2021/06/06 03:06:54;;;;;;;1.08;0.95;;;22.40;51.60;;;;;;4972014;28;20039;-29
2021/06/06 03:09:20;;;;;;;1.00;1.00;;;22.30;51.60;;;;;;4995985;28;20117;-29
2021/06/06 03:11:46;;;;;;;1.48;1.17;;;22.30;51.60;;;;;;5014542;28;20108;-33
2021/06/06 03:14:17;;;;;;;1.83;1.10;;;22.30;51.60;;;;;;5031429;28;20030;-28
2021/06/06 03:17:01;;;;;;;1.50;1.13;;;22.30;51.40;;;;;;5015203;28;20024;-28
2021/06/06 03:19:28;;;;;;;1.02;1.02;;;22.20;51.50;;;;;;5013858;28;20034;-29
2021/06/06 03:21:53;;;;;;;1.38;1.27;;;22.20;51.60;;;;;;5017570;28;20040;-33
2021/06/06 03:24:37;;;;;;;1.15;0.93;;;22.20;51.60;;;;;;5047008;28;20500;-29
2021/06/06 03:27:04;;;;;;;1.10;1.00;;;22.20;51.70;;;;;;5033010;28;20013;-26
2021/06/06 03:29:34;;;;;;;1.30;1.20;;;22.20;51.70;;;;;;5046373;28;20234;-32
2021/06/06 03:32:04;;;;;;;1.45;1.27;;;22.20;51.70;;;;;;5015670;28;20159;-29
2021/06/06 03:34:29;;;;;;;1.05;1.05;;;22.20;51.60;;;;;;5032159;28;20555;-30
2021/06/06 03:36:55;;;;;;;1.40;1.00;;;22.20;51.70;;;;;;5033409;28;20033;-31
2021/06/06 03:39:27;;;;;;;1.00;0.80;;;22.20;51.50;;;;;;5034601;28;20021;-29
2021/06/06 03:41:52;;;;;;;3.38;1.13;;;22.20;51.60;;;;;;5031063;28;20025;-33
2021/06/06 03:44:18;;;;;;;0.95;0.88;;;22.20;51.70;;;;;;5033302;28;20075;-28
2021/06/06 03:46:44;;;;;;;1.00;1.00;;;22.20;51.60;;;;;;5031918;28;20105;-28
2021/06/06 03:49:10;;;;;;;1.67;0.95;;;22.20;51.60;;;;;;5030758;28;20021;-32
2021/06/06 03:51:36;;;;;;;1.23;1.00;;;22.20;52.20;;;;;;5047971;28;20499;-31
2021/06/06 03:54:02;;;;;;;1.88;1.42;;;22.20;51.60;;;;;;5031875;28;20033;-32
2021/06/06 03:56:28;;;;;;;1.30;1.20;;;22.10;51.70;;;;;;5031852;28;20021;-31
2021/06/06 03:58:53;;;;;;;0.90;0.85;;;22.10;51.70;;;;;;5034066;28;20033;-32
2021/06/06 04:01:19;;;;;;;2.33;0.90;;;22.10;51.90;;;;;;5030516;28;20073;-32
2021/06/06 04:03:45;;;;;;;1.40;1.30;;;22.10;51.70;;;;;;5032542;28;20029;-32
2021/06/06 04:06:11;;;;;;;2.50;1.00;;;22.20;51.80;;;;;;5031363;28;20029;-28
2021/06/06 04:08:36;;;;;;;1.42;1.02;;;22.20;51.80;;;;;;5034718;28;20041;-29
2021/06/06 04:11:02;;;;;;;1.10;0.98;;;22.20;51.80;;;;;;5032490;28;20009;-30
2021/06/06 04:13:28;;;;;;;1.40;1.27;;;22.10;51.80;;;;;;5030051;28;20037;-34
2021/06/06 04:15:53;;;;;;;1.48;1.10;;;22.10;51.90;;;;;;5033635;28;20083;-34
2021/06/06 04:18:24;;;;;;;0.98;0.98;;;22.10;51.90;;;;;;5047003;28;20128;-30
2021/06/06 04:20:50;;;;;;;1.30;1.10;;;22.10;51.90;;;;;;5032321;28;20026;-34
2021/06/06 04:23:16;;;;;;;1.42;1.30;;;22.00;51.90;;;;;;5031715;28;20025;-30
2021/06/06 04:25:42;;;;;;;2.25;0.80;;;22.00;52.10;;;;;;5012846;28;20034;-33
2021/06/06 04:28:07;;;;;;;1.88;1.10;;;22.10;52.00;;;;;;5030482;28;20024;-29
2021/06/06 04:30:33;;;;;;;1.20;1.10;;;22.10;51.90;;;;;;5011985;28;20040;-29
2021/06/06 04:33:02;;;;;;;2.25;1.25;;;22.00;51.90;;;;;;5031402;28;20040;-30
2021/06/06 04:35:28;;;;;;;2.17;1.33;;;22.10;52.00;;;;;;5032074;28;20041;-31
2021/06/06 04:37:53;;;;;;;0.82;0.82;;;22.10;52.30;;;;;;5032026;28;20040;-33
2021/06/06 04:40:19;;;;;;;1.13;1.02;;;22.10;52.20;;;;;;5030894;28;20472;-38
2021/06/06 04:42:45;;;;;;;1.73;1.20;;;22.10;52.10;;;;;;5032840;28;20812;-31
2021/06/06 04:45:12;;;;;;;1.65;1.30;;;22.10;52.00;;;;;;5030809;28;20029;-31
2021/06/06 04:47:38;;;;;;;1.00;0.90;;;22.10;52.10;;;;;;5035969;28;20116;-28
2021/06/06 04:50:05;;;;;;;1.30;1.02;;;22.10;52.10;;;;;;5034978;28;20451;-33
2021/06/06 04:52:35;;;;;;;1.15;0.90;;;22.10;52.00;;;;;;5031930;28;20033;-33
2021/06/06 04:55:05;;;;;;;1.10;1.00;;;22.20;52.20;;;;;;5033599;28;20396;-37
2021/06/06 04:57:30;;;;;;;1.35;1.20;;;22.10;52.20;;;;;;5031356;28;20119;-31
2021/06/06 04:59:56;;;;;;;1.55;1.00;;;22.10;52.10;;;;;;5030769;28;20120;-29
2021/06/06 05:02:22;;;;;;;1.02;0.93;;;22.10;52.20;;;;;;5029189;28;20029;-30
2021/06/06 05:04:47;;;;;;;1.38;1.00;;;22.10;52.10;;;;;;5038474;28;20514;-30
2021/06/06 05:07:13;;;;;;;0.90;0.90;;;22.10;52.30;;;;;;5032386;28;20034;-32
2021/06/06 05:09:38;;;;;;;1.80;1.20;;;22.10;52.20;;;;;;5020985;28;20030;-33
2021/06/06 05:12:04;;;;;;;2.33;1.23;;;22.10;52.20;;;;;;5036128;28;20060;-29
2021/06/06 05:14:30;;;;;;;1.20;1.00;;;22.10;51.90;;;;;;5031019;28;20040;-30
2021/06/06 05:16:56;;;;;;;0.98;0.90;;;22.10;52.20;;;;;;5034857;28;20406;-31
2021/06/06 05:19:21;;;;;;;1.20;1.10;;;22.10;52.00;;;;;;5037385;28;20083;-33
2021/06/06 05:21:47;;;;;;;2.78;1.30;;;22.20;51.90;;;;;;5038753;28;20036;-35
2021/06/06 05:24:12;;;;;;;1.23;1.10;;;22.10;51.90;;;;;;5011182;28;20504;-32
2021/06/06 05:26:38;;;;;;;1.10;1.00;;;22.10;52.20;;;;;;5027578;28;20108;-34
2021/06/06 05:29:04;;;;;;;1.38;1.27;;;22.10;52.00;;;;;;5031492;28;20480;-32
2021/06/06 05:31:30;;;;;;;1.17;1.10;;;22.20;52.10;;;;;;5030092;28;20032;-29
2021/06/06 05:33:57;;;;;;;1.45;1.00;;;22.10;52.10;;;;;;5033234;28;20029;-32
2021/06/06 05:36:22;;;;;;;1.13;1.02;;;22.10;52.40;;;;;;5040496;28;20037;-29
2021/06/06 05:38:48;;;;;;;2.47;1.33;;;22.10;52.30;;;;;;5034137;28;20032;-33
2021/06/06 05:41:13;;;;;;;1.67;1.10;;;22.10;52.40;;;;;;5033682;28;20029;-35
2021/06/06 05:43:39;;;;;;;1.92;1.10;;;22.10;52.40;;;;;;5037680;28;20033;-31
2021/06/06 05:46:06;;;;;;;1.30;1.20;;;22.10;52.20;;;;;;5030154;28;20381;-35
2021/06/06 05:48:32;;;;;;;1.15;1.00;;;22.10;52.30;;;;;;5027506;28;20037;-34
2021/06/06 05:50:59;;;;;;;2.13;1.20;;;22.10;52.40;;;;;;5027268;28;20030;-33
2021/06/06 05:53:24;;;;;;;1.33;1.15;;;22.00;52.40;;;;;;5030554;28;20108;-34
2021/06/06 05:55:50;;;;;;;1.35;1.10;;;22.00;52.30;;;;;;5035656;28;20124;-41
2021/06/06 05:58:16;;;;;;;1.27;1.05;;;21.90;52.60;;;;;;5010056;28;20021;-31
2021/06/06 06:00:43;;;;;;;1.35;0.90;;;22.00;52.70;;;;;;5031246;28;20068;-32
2021/06/06 06:03:09;;;;;;;1.10;1.00;;;22.00;52.80;;;;;;5030249;28;20514;-33
2021/06/06 06:05:35;;;;;;;1.17;1.08;;;21.90;52.70;;;;;;5031452;28;20029;-32
2021/06/06 06:08:13;;;;;;;1.38;1.08;;;22.00;52.60;;;;;;5032510;28;20608;-33
2021/06/06 06:10:39;;;;;;;1.25;1.08;;;22.00;52.70;;;;;;5028135;28;20128;-32
2021/06/06 06:13:05;;;;;;;0.95;0.93;;;22.00;52.70;;;;;;5029243;28;20124;-31
2021/06/06 06:15:30;;;;;;;1.23;1.00;;;22.00;52.70;;;;;;5037056;28;20095;-31
2021/06/06 06:17:56;;;;;;;1.50;1.13;;;22.00;52.80;;;;;;5032744;28;20405;-32
2021/06/06 06:20:21;;;;;;;1.17;1.02;;;22.00;52.80;;;;;;5034519;28;20113;-30
2021/06/06 06:22:47;;;;;;;1.35;1.25;;;22.00;53.10;;;;;;5032897;28;20021;-30
2021/06/06 06:25:14;;;;;;;1.63;1.05;;;22.00;52.70;;;;;;5029027;28;20022;-30
2021/06/06 06:27:39;;;;;;;1.20;1.10;;;22.20;52.50;;;;;;5033880;28;20034;-32
2021/06/06 06:30:12;;;;;;;0.88;0.88;;;22.40;52.30;;;;;;5014125;28;20092;-32
2021/06/06 06:32:37;;;;;;;2.53;1.42;;;22.50;52.00;;;;;;5034051;28;20073;-31
2021/06/06 06:35:03;;;;;;;2.83;1.60;;;22.60;51.90;;;;;;4683055;28;9999958;-32
2021/06/06 06:37:29;;;;;;;2.65;1.70;;;22.40;52.20;;;;;;5016267;28;20041;-30
2021/06/06 06:39:55;;;;;;;4.00;1.58;;;22.30;52.50;;;;;;5035993;28;20025;-33
2021/06/06 06:42:20;;;;;;;2.40;1.77;;;22.10;52.80;;;;;;5034701;28;20033;-31
2021/06/06 06:44:46;;;;;;;3.17;2.05;;;22.10;53.10;;;;;;5031842;28;20030;-32
2021/06/06 06:47:12;;;;;;;2.55;1.85;;;22.20;53.40;;;;;;5013692;28;20116;-27
2021/06/06 06:49:37;;;;;;;3.63;1.60;;;22.00;53.90;;;;;;5033607;28;20030;-29
2021/06/06 06:52:04;;;;;;;2.10;1.88;;;21.90;54.10;;;;;;5033586;28;20111;-31
2021/06/06 06:54:29;;;;;;;2.83;2.00;;;21.90;54.10;;;;;;5034697;28;20025;-30
2021/06/06 06:56:55;;;;;;;3.75;1.90;;;21.80;54.30;;;;;;5032965;28;20044;-33
2021/06/06 06:59:27;;;;;;;2.28;1.80;;;21.80;55.00;;;;;;5032014;28;20061;-33
2021/06/06 07:01:55;;;;;;;2.10;1.70;;;22.00;53.80;;;;;;5033617;28;20085;-34
2021/06/06 07:04:21;;;;;;;2.33;1.60;;;21.90;53.90;;;;;;5031400;28;20037;-30
2021/06/06 07:06:54;;;;;;;3.42;1.40;;;21.40;55.00;;;;;;5032739;28;20033;-30
2021/06/06 07:09:20;;;;;;;3.00;1.48;;;21.20;55.60;;;;;;5035711;28;20022;-30
2021/06/06 07:11:45;;;;;;;3.33;1.77;;;21.10;55.90;;;;;;5048927;28;20083;-31
2021/06/06 07:14:11;;;;;;;1.45;1.35;;;21.10;56.10;;;;;;5033001;28;20029;-30
2021/06/06 07:16:36;;;;;;;2.28;1.50;;;21.10;55.90;;;;;;5029382;28;20037;-31
2021/06/06 07:19:03;;;;;;;1.80;1.70;;;21.20;55.70;;;;;;5021694;28;20416;-31
2021/06/06 07:21:29;;;;;;;2.20;1.52;;;21.60;55.30;;;;;;5023043;28;20437;-31
2021/06/06 07:23:54;;;;;;;3.22;1.58;;;21.80;54.90;;;;;;5030523;28;20108;-34
2021/06/06 07:26:35;;;;;;;2.10;1.67;;;21.90;54.50;;;;;;5035554;28;20116;-33
2021/06/06 07:29:01;;;;;;;4.55;1.70;;;22.10;54.10;;;;;;5031505;28;20104;-32
2021/06/06 07:31:28;;;;;;;2.90;1.50;;;22.20;53.70;;;;;;5009908;28;20449;-33
2021/06/06 07:33:53;;;;;;;3.33;1.52;;;22.20;54.20;;;;;;5035160;28;20041;-31
2021/06/06 07:36:19;;;;;;;7.03;1.90;;;22.20;53.40;;;;;;5033577;28;20044;-37
2021/06/06 07:38:46;;;;;;;2.90;1.60;;;22.30;53.40;;;;;;5029412;28;20052;-30
2021/06/06 07:41:12;;;;;;;2.35;1.67;;;22.30;53.50;;;;;;5029932;28;20017;-33
2021/06/06 07:43:37;;;;;;;2.70;1.48;;;22.30;53.60;;;;;;5012403;28;20034;-33
2021/06/06 07:46:03;;;;;;;3.05;1.60;;;22.50;53.30;;;;;;5030620;28;20036;-35
2021/06/06 07:48:29;;;;;;;4.20;1.73;;;22.20;54.00;;;;;;5028627;28;20086;-29
2021/06/06 07:50:54;;;;;;;3.05;1.58;;;22.10;54.50;;;;;;5026176;28;20045;-31
2021/06/06 07:53:20;;;;;;;5.80;2.00;;;22.10;54.30;;;;;;5027618;28;20510;-30
2021/06/06 07:55:46;;;;;;;3.13;1.77;;;22.30;54.30;;;;;;5023857;28;20025;-32
2021/06/06 07:58:13;;;;;;;3.00;1.67;;;22.40;53.90;;;;;;5028881;28;20040;-32
2021/06/06 08:00:40;;;;;;;3.67;1.50;;;22.20;54.20;;;;;;5009711;28;20481;-31
2021/06/06 08:03:06;;;;;;;2.60;1.38;;;22.30;54.00;;;;;;5054312;28;20098;-29
2021/06/06 08:05:33;;;;;;;3.20;1.30;;;22.30;54.10;;;;;;5028678;28;20053;-28
2021/06/06 08:07:59;;;;;;;2.42;1.30;;;22.30;54.30;;;;;;5031786;28;20041;-34
2021/06/06 08:10:25;;;;;;;1.77;1.15;;;22.40;53.70;;;;;;5035900;28;20470;-37
2021/06/06 08:12:51;;;;;;;2.55;1.35;;;22.60;53.40;;;;;;5036897;28;20462;-37
2021/06/06 08:15:17;;;;;;;2.40;1.63;;;22.60;53.40;;;;;;5020937;28;20049;-37
2021/06/06 08:17:43;;;;;;;3.25;1.30;;;22.60;53.40;;;;;;5021632;28;20071;-36
2021/06/06 08:20:12;;;;;;;1.98;1.38;;;22.40;53.60;;;;;;5024330;28;20498;-35
2021/06/06 08:22:38;;;;;;;1.92;1.40;;;22.60;53.30;;;;;;5018934;28;20957;-38
2021/06/06 08:25:07;;;;;;;2.97;1.35;;;22.70;53.20;;;;;;5039647;28;20054;-36
2021/06/06 08:27:33;;;;;;;4.93;1.48;;;22.80;53.20;;;;;;5025679;28;20114;-37
2021/06/06 08:29:59;;;;;;;2.47;1.20;;;22.80;53.30;;;;;;5025696;28;20780;-39
2021/06/06 08:32:24;;;;;;;2.08;1.20;;;22.80;53.20;;;;;;5022385;28;20129;-36
2021/06/06 08:34:50;;;;;;;2.03;1.10;;;22.90;53.20;;;;;;5024341;28;20049;-38
2021/06/06 08:37:15;;;;;;;2.17;1.20;;;23.00;53.90;;;;;;5039118;28;20063;-37
2021/06/06 08:39:41;;;;;;;2.50;1.33;;;23.00;53.20;;;;;;5044379;28;20052;-35
2021/06/06 08:42:21;;;;;;;1.50;1.30;;;23.00;53.10;;;;;;5046728;28;20038;-38
2021/06/06 08:44:54;;;;;;;2.17;1.50;;;23.10;52.90;;;;;;5036209;28;20132;-37
2021/06/06 08:47:22;;;;;;;1.77;1.20;;;23.00;53.20;;;;;;5023372;28;20119;-36
2021/06/06 08:49:54;;;;;;;3.10;1.30;;;23.00;53.50;;;;;;5028101;28;20037;-35
2021/06/06 08:52:27;;;;;;;1.85;1.05;;;23.10;53.30;;;;;;5042152;28;20504;-36
2021/06/06 08:54:55;;;;;;;1.50;1.20;;;23.10;53.20;;;;;;5037111;28;20119;-37
2021/06/06 08:57:37;;;;;;;2.28;1.40;;;23.20;53.20;;;;;;5057682;28;20322;-35
2021/06/06 09:00:26;;;;;;;1.92;1.50;;;23.20;52.90;;;;;;5034070;28;20072;-37
2021/06/06 09:02:57;;;;;;;6.90;1.77;;;23.40;52.60;;;;;;5044565;28;20407;-36
2021/06/06 09:05:36;;;;;;;2.72;1.60;;;23.50;52.50;;;;;;5042992;28;20093;-37
2021/06/06 09:08:02;;;;;;;1.80;1.42;;;23.50;52.50;;;;;;5053144;28;20049;-33
2021/06/06 09:10:33;;;;;;;1.85;1.45;;;23.50;52.40;;;;;;5052212;28;20029;-36
2021/06/06 09:12:59;;;;;;;2.38;1.20;;;23.60;52.60;;;;;;5060747;28;20045;-36
2021/06/06 09:15:26;;;;;;;3.75;1.15;;;23.50;52.40;;;;;;5058757;28;20067;-36
2021/06/06 09:17:57;;;;;;;1.85;1.02;;;23.60;52.30;;;;;;5060160;28;20044;-35
2021/06/06 09:20:33;;;;;;;2.83;1.20;;;23.60;52.30;;;;;;5043329;28;20098;-34
2021/06/06 09:23:19;;;;;;;6.55;1.50;;;23.50;52.30;;;;;;5042405;28;20465;-37
2021/06/06 09:25:46;;;;;;;2.38;1.30;;;23.50;52.30;;;;;;5053704;28;20054;-36
2021/06/06 09:28:20;;;;;;;2.05;1.25;;;23.60;52.00;;;;;;5049330;28;20033;-38
2021/06/06 09:31:01;;;;;;;1.90;1.40;;;23.70;51.70;;;;;;5055060;28;20052;-37
2021/06/06 09:33:37;;;;;;;2.00;1.20;;;23.70;51.50;;;;;;5057796;28;20040;-34
2021/06/06 09:36:29;;;;;;;1.65;1.40;;;23.80;51.40;;;;;;5039353;28;20032;-35
2021/06/06 09:38:55;;;;;;;5.90;5.40;;;23.70;51.70;;;;;;5030599;28;20139;-38
2021/06/06 09:41:32;;;;;;;6.60;5.97;;;23.60;52.00;;;;;;5037061;28;20039;-35
2021/06/06 09:44:16;;;;;;;14.05;11.88;;;23.70;51.70;;;;;;5031466;28;20045;-38
2021/06/06 09:46:46;;;;;;;15.25;12.05;;;23.70;51.90;;;;;;5043316;28;20402;-37
2021/06/06 09:49:28;;;;;;;16.08;12.90;;;23.60;52.00;;;;;;5050375;28;20044;-35
2021/06/06 09:51:56;;;;;;;12.65;11.30;;;23.60;52.30;;;;;;5029343;28;20125;-35
2021/06/06 09:54:32;;;;;;;15.80;12.32;;;23.70;52.20;;;;;;5019553;28;20081;-37
2021/06/06 09:57:01;;;;;;;15.07;11.95;;;23.90;51.80;;;;;;5029148;28;20058;-38
2021/06/06 09:59:29;;;;;;;12.70;11.20;;;23.80;52.10;;;;;;5022058;28;20083;-38
2021/06/06 10:02:00;;;;;;;9.07;8.27;;;24.00;51.60;;;;;;5062243;28;20072;-36
2021/06/06 10:04:36;;;;;;;8.98;8.07;;;24.00;51.50;;;;;;5036487;28;20043;-38
2021/06/06 10:07:29;;;;;;;8.13;6.75;;;24.00;51.30;;;;;;5057156;28;20131;-34
2021/06/06 10:09:56;;;;;;;6.30;5.70;;;24.20;50.90;;;;;;5057735;28;20044;-35
2021/06/06 10:12:43;;;;;;;11.05;8.63;;;24.20;50.60;;;;;;5042696;28;20586;-36
2021/06/06 10:15:43;;;;;;;18.65;14.35;;;24.10;50.60;;;;;;4692502;28;10000652;-36
2021/06/06 10:18:27;;;;;;;23.20;17.60;;;24.20;50.50;;;;;;5014411;28;20401;-29
2021/06/06 10:20:59;;;;;;;29.05;20.02;;;24.00;51.00;;;;;;5036609;28;20438;-33
2021/06/06 10:23:27;;;;;;;23.15;16.90;;;23.90;51.30;;;;;;5039970;28;20499;-37
2021/06/06 10:26:13;;;;;;;36.97;24.27;;;23.70;51.90;;;;;;5049149;28;20111;-36
2021/06/06 10:28:50;;;;;;;25.05;16.85;;;23.70;51.70;;;;;;5039340;28;20049;-33
2021/06/06 10:31:35;;;;;;;26.60;19.60;;;23.50;53.30;;;;;;5060134;28;20056;-33
2021/06/06 10:34:06;;;;;;;39.45;22.65;;;23.30;52.70;;;;;;5057402;28;20052;-34
2021/06/06 10:36:34;;;;;;;27.25;19.85;;;23.30;52.90;;;;;;5040997;28;20396;-36
2021/06/06 10:39:00;;;;;;;25.65;18.70;;;23.30;52.90;;;;;;5055342;28;20105;-33
2021/06/06 10:41:30;;;;;;;23.73;17.80;;;23.20;53.70;;;;;;5048537;28;20049;-33
2021/06/06 10:44:33;;;;;;;22.92;16.63;;;23.50;52.80;;;;;;5056404;28;20046;-31
2021/06/06 10:47:18;;;;;;;21.83;15.90;;;23.80;52.20;;;;;;5052391;28;20084;-35
2021/06/06 10:49:56;;;;;;;22.13;16.85;;;23.90;51.90;;;;;;5059894;28;20033;-33
2021/06/06 10:52:38;;;;;;;17.80;14.73;;;24.00;51.40;;;;;;5063634;28;20105;-34
2021/06/06 10:55:22;;;;;;;16.20;12.55;;;24.10;50.80;;;;;;5040655;28;20044;-35
2021/06/06 10:57:48;;;;;;;10.50;9.27;;;24.20;50.70;;;;;;5063359;28;20066;-35
2021/06/06 11:00:24;;;;;;;9.35;7.82;;;24.20;50.70;;;;;;5035876;28;20415;-40
2021/06/06 11:02:49;;;;;;;7.35;6.65;;;24.10;50.60;;;;;;5051608;28;20093;-37
2021/06/06 11:05:33;;;;;;;6.57;5.90;;;24.20;50.60;;;;;;5057331;28;20040;-32
2021/06/06 11:07:58;;;;;;;4.87;4.13;;;24.20;50.60;;;;;;5033621;28;20537;-36
2021/06/06 11:10:35;;;;;;;4.82;4.45;;;24.20;50.20;;;;;;5025331;28;20479;-33
2021/06/06 11:13:31;;;;;;;3.95;3.45;;;24.20;50.10;;;;;;5025449;28;20060;-33
2021/06/06 11:16:00;;;;;;;3.38;3.08;;;24.30;49.90;;;;;;5026599;28;20045;-35
2021/06/06 11:18:26;;;;;;;3.20;2.67;;;24.20;50.40;;;;;;5023676;28;20049;-35
2021/06/06 11:20:55;;;;;;;3.30;3.10;;;23.90;50.80;;;;;;5027605;28;20069;-36
2021/06/06 11:23:32;;;;;;;5.28;3.25;;;24.10;50.70;;;;;;5034369;28;20103;-33
2021/06/06 11:25:58;;;;;;;2.63;2.17;;;24.00;50.90;;;;;;5027911;28;20045;-34
2021/06/06 11:28:35;;;;;;;3.63;2.47;;;24.00;50.80;;;;;;5008716;28;20033;-36
2021/06/06 11:31:02;;;;;;;2.60;2.40;;;24.10;50.80;;;;;;5043634;28;20139;-36
2021/06/06 11:33:59;;;;;;;2.38;2.05;;;24.00;51.10;;;;;;5021557;28;20555;-37
2021/06/06 11:36:34;;;;;;;3.17;1.70;;;24.20;50.90;;;;;;4978013;28;20540;-36
2021/06/06 11:39:32;;;;;;;2.08;1.52;;;24.30;50.40;;;;;;4976258;28;20043;-39
2021/06/06 11:41:59;;;;;;;2.17;1.40;;;24.30;50.10;;;;;;4955916;28;20050;-38
2021/06/06 11:45:18;;;;;;;3.05;1.35;;;24.40;50.10;;;;;;4959575;28;20046;-39
2021/06/06 11:47:52;;;;;;;1.67;1.40;;;24.30;50.20;;;;;;4894317;29;20059;-37
2021/06/06 11:50:21;;;;;;;1.23;1.13;;;24.40;50.00;;;;;;4891333;29;20084;-40
2021/06/06 11:52:55;;;;;;;1.73;1.20;;;24.40;50.00;;;;;;4900757;29;20112;-39
2021/06/06 11:55:24;;;;;;;1.10;1.00;;;24.50;50.00;;;;;;4890677;29;20148;-36
2021/06/06 11:58:12;;;;;;;2.75;1.00;;;24.40;50.00;;;;;;4890259;29;20599;-40
2021/06/06 12:00:42;;;;;;;1.48;1.17;;;24.30;50.10;;;;;;4890172;29;20052;-34
2021/06/06 12:03:13;;;;;;;1.33;0.98;;;24.20;50.20;;;;;;4891830;29;20177;-42
2021/06/06 12:06:00;;;;;;;1.25;0.90;;;24.20;50.10;;;;;;4889653;29;20053;-31
2021/06/06 12:08:58;;;;;;;1.13;1.02;;;24.20;49.80;;;;;;4886547;29;20052;-37
2021/06/06 12:11:27;;;;;;;1.13;0.98;;;24.20;49.70;;;;;;4889118;29;20112;-31
2021/06/06 12:14:06;;;;;;;1.85;1.08;;;24.20;49.80;;;;;;4921584;28;20086;-38
2021/06/06 12:16:32;;;;;;;0.88;0.88;;;24.30;49.50;;;;;;4943672;28;20039;-34
2021/06/06 12:19:11;;;;;;;1.77;1.00;;;24.30;49.60;;;;;;4945821;28;20175;-37
2021/06/06 12:21:39;;;;;;;1.42;1.00;;;24.20;49.60;;;;;;4977150;28;20404;-34
2021/06/06 12:24:06;;;;;;;1.00;0.90;;;24.30;49.50;;;;;;5038804;28;20056;-37
2021/06/06 12:26:35;;;;;;;1.50;0.95;;;24.30;49.70;;;;;;5026790;28;20143;-35
2021/06/06 12:29:00;;;;;;;0.98;0.70;;;24.30;49.50;;;;;;5028651;28;20041;-34
2021/06/06 12:31:30;;;;;;;1.02;0.80;;;24.30;49.40;;;;;;5020340;28;20042;-39
2021/06/06 12:33:56;;;;;;;2.03;0.77;;;24.40;49.40;;;;;;5026336;28;20056;-37
2021/06/06 12:36:29;;;;;;;2.38;0.73;;;24.40;49.40;;;;;;5040663;28;20037;-37
2021/06/06 12:38:58;;;;;;;0.93;0.80;;;24.40;49.50;;;;;;4990928;28;20048;-37
2021/06/06 12:41:24;;;;;;;0.80;0.80;;;24.40;49.90;;;;;;5011283;28;20041;-33
2021/06/06 12:43:52;;;;;;;1.60;0.95;;;24.40;49.90;;;;;;5040755;28;20047;-38
2021/06/06 12:46:17;;;;;;;1.30;0.93;;;24.50;50.00;;;;;;5024968;28;20053;-39
2021/06/06 12:48:58;;;;;;;1.00;0.90;;;24.50;50.20;;;;;;5031716;28;20153;-34
2021/06/06 12:51:28;;;;;;;1.45;0.90;;;24.40;50.50;;;;;;5043270;28;20051;-36
2021/06/06 12:54:02;;;;;;;1.23;1.13;;;24.30;50.70;;;;;;5005822;28;20049;-38
2021/06/06 12:56:28;;;;;;;1.15;1.10;;;24.40;50.50;;;;;;5014674;28;20047;-40
2021/06/06 12:59:20;;;;;;;1.73;1.15;;;24.30;50.60;;;;;;5037584;28;20049;-39
2021/06/06 13:01:46;;;;;;;1.55;1.30;;;24.20;50.60;;;;;;5022665;28;20150;-39